Natsushima — 7JDU — position and weather

sailwx.info

Track history (hours):
 
Tides and Currents Weather Stations Pressure Air Temp Water Temp Dewpoint Dewpoint Depression Visibility Wind Speed Wind Dir Waves Ship Positions

Oceanographic research ship Natsushima (Japan)

Detailed information on ship capabilities available from University of Delaware's Ocean Information Center.

Last reported at 2017-Dec-16 08:05 UTC. Time now 2017-Dec-18 18:23 UTC.
Position N 33°13' E 132°01'.

Length 67.4 m; beam 13 m.

Type: Other ship. MMSI: 431129000.

Date/timePositionNaut miles runAvg speedWind from/ knotsBaromVisibWave heightAir tempDewpointWater temp
2017-Dec-16 08:05N 33°13' E 132°01'2 9.1
2017-Dec-16 07:51N 33°15' E 132°00'3 9.3
2017-Dec-16 07:30N 33°18' E 131°59'5 9.0
2017-Dec-16 06:56N 33°23' E 131°56'4 9.5
2017-Dec-16 06:30N 33°26' E 131°54'5 9.8
2017-Dec-16 06:00N 33°31' E 131°51'510.1
2017-Dec-16 05:30N 33°35' E 131°48'510.1
2017-Dec-16 05:00N 33°39' E 131°44'510.5
2017-Dec-16 04:31N 33°42' E 131°39'510.5
2017-Dec-16 04:00N 33°43' E 131°32'510.5
2017-Dec-16 03:31N 33°42' E 131°26'2 4.3
2017-Dec-16 03:00N 33°41' E 131°24'1 1.8
2017-Dec-16 02:30N 33°41' E 131°25'1 1.3
2017-Dec-16 02:00N 33°41' E 131°24'1 1.0
2017-Dec-16 01:31N 33°41' E 131°24'1 1.3
2017-Dec-16 01:00N 33°41' E 131°23'1 1.0
2017-Dec-16 00:30N 33°41' E 131°23'0 0.7
2017-Dec-16 00:01N 33°40' E 131°22'0 0.7
2017-Dec-15 23:30N 33°40' E 131°22'3 5.3
2017-Dec-15 23:00N 33°38' E 131°24'0 0.3
2017-Dec-15 22:28N 33°38' E 131°24'0 0.0
2017-Dec-15 21:58N 33°38' E 131°24'0 0.1
2017-Dec-15 21:28N 33°38' E 131°24'0 0.0
2017-Dec-15 20:58N 33°38' E 131°24'0 0.0
2017-Dec-15 20:25N 33°38' E 131°24'0 0.0
2017-Dec-15 19:58N 33°38' E 131°24'0 0.0
2017-Dec-15 19:28N 33°38' E 131°24'0 0.0
2017-Dec-15 18:58N 33°38' E 131°24'0 0.0
2017-Dec-15 18:28N 33°38' E 131°24'0 0.0
2017-Dec-15 17:58N 33°38' E 131°24'0 0.0
2017-Dec-15 17:16N 33°38' E 131°24'0 0.0
2017-Dec-15 16:52N 33°38' E 131°24'0 0.0
2017-Dec-15 16:28N 33°38' E 131°24'0 0.0
2017-Dec-15 15:58N 33°38' E 131°24'0 0.0
2017-Dec-15 15:28N 33°38' E 131°24'0 0.0
2017-Dec-15 14:58N 33°38' E 131°24'0 0.0
2017-Dec-15 14:28N 33°38' E 131°24'0 0.0
2017-Dec-15 13:58N 33°38' E 131°24'0 0.0
2017-Dec-15 13:22N 33°38' E 131°24'0 0.0
2017-Dec-15 12:58N 33°38' E 131°24'0 0.0
2017-Dec-15 12:28N 33°38' E 131°24'0 0.0
2017-Dec-15 11:58N 33°38' E 131°24'0 0.0
2017-Dec-15 11:28N 33°38' E 131°24'0 0.0
2017-Dec-15 10:52N 33°38' E 131°24'0 0.0
2017-Dec-15 10:28N 33°38' E 131°24'0 0.0
2017-Dec-15 09:58N 33°38' E 131°24'0 0.0
2017-Dec-15 09:22N 33°38' E 131°24'0 0.0
2017-Dec-15 08:52N 33°38' E 131°24'0 0.0
2017-Dec-15 08:28N 33°38' E 131°24'0 0.0
2017-Dec-15 07:52N 33°38' E 131°24'0 0.0
2017-Dec-15 07:16N 33°38' E 131°24'0 0.2
2017-Dec-15 06:59N 33°38' E 131°24'3 6.8
2017-Dec-15 06:30N 33°41' E 131°21'5 9.3
2017-Dec-15 06:00N 33°44' E 131°18'5 9.4
2017-Dec-15 05:30N 33°47' E 131°13'5 9.3
2017-Dec-15 05:00N 33°51' E 131°10'5 9.3
2017-Dec-15 04:30N 33°54' E 131°06'5 9.6
2017-Dec-15 04:00N 33°58' E 131°02'8 5.5
2017-Dec-15 02:30N 33°57' E 130°52'4 2.5
2017-Dec-15 00:56N 33°54' E 130°49'0 0.0
2017-Dec-15 00:20N 33°54' E 130°49'0 0.0
2017-Dec-14 06:33N 33°54' E 130°49'0 0.0
2017-Dec-14 06:30N 33°54' E 130°49'0 0.0
2017-Dec-14 06:00N 33°54' E 130°49'0 0.0
2017-Dec-14 05:30N 33°54' E 130°49'0 0.0
2017-Dec-14 05:00N 33°54' E 130°49'0 0.0
2017-Dec-14 04:30N 33°54' E 130°49'0 0.0
2017-Dec-14 04:00N 33°54' E 130°49'0 0.0
2017-Dec-14 03:30N 33°54' E 130°49'0 0.0
2017-Dec-14 03:00N 33°54' E 130°49'0 0.0
2017-Dec-14 02:30N 33°54' E 130°49'0 0.0
2017-Dec-14 02:00N 33°54' E 130°49'  
Track history (hours):
 
Tides and Currents Weather Stations Pressure Air Temp Water Temp Dewpoint Dewpoint Depression Visibility Wind Speed Wind Dir Waves Ship Positions

Oceanographic research ship Natsushima (Japan)

Detailed information on ship capabilities available from University of Delaware's Ocean Information Center.

Last reported at 2017-Dec-16 08:05 UTC. Time now 2017-Dec-18 18:23 UTC.
Position N 33°13' E 132°01'.

Length 67.4 m; beam 13 m.

Type: Other ship. MMSI: 431129000.

Date/timePositionNaut miles runAvg speedWind from/ knotsBaromVisibWave heightAir tempDewpointWater temp
2017-Dec-16 08:05N 33°13' E 132°01'2 9.1
2017-Dec-16 07:51N 33°15' E 132°00'3 9.3
2017-Dec-16 07:30N 33°18' E 131°59'5 9.0
2017-Dec-16 06:56N 33°23' E 131°56'4 9.5
2017-Dec-16 06:30N 33°26' E 131°54'5 9.8
2017-Dec-16 06:00N 33°31' E 131°51'510.1
2017-Dec-16 05:30N 33°35' E 131°48'510.1
2017-Dec-16 05:00N 33°39' E 131°44'510.5
2017-Dec-16 04:31N 33°42' E 131°39'510.5
2017-Dec-16 04:00N 33°43' E 131°32'510.5
2017-Dec-16 03:31N 33°42' E 131°26'2 4.3
2017-Dec-16 03:00N 33°41' E 131°24'1 1.8
2017-Dec-16 02:30N 33°41' E 131°25'1 1.3
2017-Dec-16 02:00N 33°41' E 131°24'1 1.0
2017-Dec-16 01:31N 33°41' E 131°24'1 1.3
2017-Dec-16 01:00N 33°41' E 131°23'1 1.0
2017-Dec-16 00:30N 33°41' E 131°23'0 0.7
2017-Dec-16 00:01N 33°40' E 131°22'0 0.7
2017-Dec-15 23:30N 33°40' E 131°22'3 5.3
2017-Dec-15 23:00N 33°38' E 131°24'0 0.3
2017-Dec-15 22:28N 33°38' E 131°24'0 0.0
2017-Dec-15 21:58N 33°38' E 131°24'0 0.1
2017-Dec-15 21:28N 33°38' E 131°24'0 0.0
2017-Dec-15 20:58N 33°38' E 131°24'0 0.0
2017-Dec-15 20:25N 33°38' E 131°24'0 0.0
2017-Dec-15 19:58N 33°38' E 131°24'0 0.0
2017-Dec-15 19:28N 33°38' E 131°24'0 0.0
2017-Dec-15 18:58N 33°38' E 131°24'0 0.0
2017-Dec-15 18:28N 33°38' E 131°24'0 0.0
2017-Dec-15 17:58N 33°38' E 131°24'0 0.0
2017-Dec-15 17:16N 33°38' E 131°24'0 0.0
2017-Dec-15 16:52N 33°38' E 131°24'0 0.0
2017-Dec-15 16:28N 33°38' E 131°24'0 0.0
2017-Dec-15 15:58N 33°38' E 131°24'0 0.0
2017-Dec-15 15:28N 33°38' E 131°24'0 0.0
2017-Dec-15 14:58N 33°38' E 131°24'0 0.0
2017-Dec-15 14:28N 33°38' E 131°24'0 0.0
2017-Dec-15 13:58N 33°38' E 131°24'0 0.0
2017-Dec-15 13:22N 33°38' E 131°24'0 0.0
2017-Dec-15 12:58N 33°38' E 131°24'0 0.0
2017-Dec-15 12:28N 33°38' E 131°24'0 0.0
2017-Dec-15 11:58N 33°38' E 131°24'0 0.0
2017-Dec-15 11:28N 33°38' E 131°24'0 0.0
2017-Dec-15 10:52N 33°38' E 131°24'0 0.0
2017-Dec-15 10:28N 33°38' E 131°24'0 0.0
2017-Dec-15 09:58N 33°38' E 131°24'0 0.0
2017-Dec-15 09:22N 33°38' E 131°24'0 0.0
2017-Dec-15 08:52N 33°38' E 131°24'0 0.0
2017-Dec-15 08:28N 33°38' E 131°24'0 0.0
2017-Dec-15 07:52N 33°38' E 131°24'0 0.0
2017-Dec-15 07:16N 33°38' E 131°24'0 0.2
2017-Dec-15 06:59N 33°38' E 131°24'3 6.8
2017-Dec-15 06:30N 33°41' E 131°21'5 9.3
2017-Dec-15 06:00N 33°44' E 131°18'5 9.4
2017-Dec-15 05:30N 33°47' E 131°13'5 9.3
2017-Dec-15 05:00N 33°51' E 131°10'5 9.3
2017-Dec-15 04:30N 33°54' E 131°06'5 9.6
2017-Dec-15 04:00N 33°58' E 131°02'8 5.5
2017-Dec-15 02:30N 33°57' E 130°52'4 2.5
2017-Dec-15 00:56N 33°54' E 130°49'0 0.0
2017-Dec-15 00:20N 33°54' E 130°49'0 0.0
2017-Dec-14 06:33N 33°54' E 130°49'0 0.0
2017-Dec-14 06:30N 33°54' E 130°49'0 0.0
2017-Dec-14 06:00N 33°54' E 130°49'0 0.0
2017-Dec-14 05:30N 33°54' E 130°49'0 0.0
2017-Dec-14 05:00N 33°54' E 130°49'0 0.0
2017-Dec-14 04:30N 33°54' E 130°49'0 0.0
2017-Dec-14 04:00N 33°54' E 130°49'0 0.0
2017-Dec-14 03:30N 33°54' E 130°49'0 0.0
2017-Dec-14 03:00N 33°54' E 130°49'0 0.0
2017-Dec-14 02:30N 33°54' E 130°49'0 0.0
2017-Dec-14 02:00N 33°54' E 130°49'  

Dump ship's entire track history